METAR AND TAF INFORMATION
METAR FOR LIEE
ADDS - METARS form results

(2025 UTC 24 January 2022)
Data provider http://aviationweather.gov/metar/data/
 
METAR text: LIEE 242020Z 36002KT CAVOK 07/05 Q1030
Conditions at: LIEE (CAGLIARI/ELMAS(A, IT) observed 2020 UTC 24 January 2022
Temperature: 7.0°C (45°F)
Dewpoint: 5.0°C (41°F) [RH = 87%]
Pressure (altimeter): 30.41 inches Hg (1030.0 mb)
Winds: from the N (360 degrees) at 2 MPH (2 knots; 1.0 m/s)
Visibility: 6 or more miles (10+ km)
Ceiling: ceiling and visibility are OK
Clouds: unknown
Weather: no significant weather observed at this time

METAR text: LIEE 241950Z 02003KT 340V050 CAVOK 07/05 Q1030
Conditions at: LIEE (CAGLIARI/ELMAS(A, IT) observed 1950 UTC 24 January 2022
Temperature: 7.0°C (45°F)
Dewpoint: 5.0°C (41°F) [RH = 87%]
Pressure (altimeter): 30.41 inches Hg (1030.0 mb)
Winds: from the NNE (20 degrees) at 3 MPH (3 knots; 1.5 m/s)
Visibility: 6 or more miles (10+ km)
Ceiling: ceiling and visibility are OK
Clouds: unknown
Weather: no significant weather observed at this time

Forecast for: LIEE (CAGLIARI/ELMAS(A, IT)
Text: TAF LIEE 241700Z 2418/2518 VRB05KT CAVOK
Forecast period: 1800 UTC 24 January 2022 to 1800 UTC 25 January 2022
Forecast type: FROM: standard forecast or significant change
Winds: variable direction winds at 6 MPH (5 knots; 2.6 m/s)
Visibility: 6 or more miles (10+ km)
Ceiling: unknown
Clouds: missing
Weather: NSW  (no significant weather)

 AIRPORT MAP

 RUNWAY INFORMATION
Runway 14 Runway length 9196 ft Runway width 148 ft
Runway elevation 9 ft Runway displaced threshold 0 ft Runway heading 138
Runway 32 Runway length 9196 ft Runway width 148 ft
Runway elevation 4 ft Runway displaced threshold 0 ft Runway heading 318

 AIRPORT FREQUENCIES
Type APP Name CAGLIARI A Frequency 118.75 MHZ
Type GND Name Elmas GND Frequency 125.425 MHZ
Type MISC Name SAR Frequency 123.1 MHZ
Type TWR Name TWR Frequency 120.6 MHZ

 AIRPORT NEAR NAVIGATION AIDS
Type VOR-DME Name Cagliari Frequency 113400 KHZ
Type NDB Name Cagliari Frequency 371 KHZ



Powered by Virtual Airlines Manager [v2.6.2]